createdAt,value
2023-03-18T00:01:17.004Z,6.54
2023-03-18T00:03:50.361Z,6.56
2023-03-18T00:06:23.448Z,6.51
2023-03-18T00:08:53.666Z,6.49
2023-03-18T00:11:27.397Z,6.44
2023-03-18T00:13:59.099Z,6.37
2023-03-18T00:16:31.313Z,6.41
2023-03-18T00:19:04.139Z,6.41
2023-03-18T00:21:36.254Z,6.40
2023-03-18T00:24:08.394Z,6.45
2023-03-18T00:26:40.353Z,6.47
2023-03-18T00:29:12.366Z,6.41
2023-03-18T00:31:44.949Z,6.40
2023-03-18T00:34:16.051Z,6.38
2023-03-18T00:36:50.728Z,6.36
2023-03-18T00:39:26.440Z,6.36
2023-03-18T00:42:02.131Z,6.36
2023-03-18T00:44:34.289Z,6.34
2023-03-18T00:47:06.493Z,6.37
2023-03-18T00:49:39.441Z,6.29
2023-03-18T00:52:11.311Z,6.19
2023-03-18T00:54:43.080Z,6.17
2023-03-18T00:57:15.607Z,6.13
2023-03-18T00:59:48.357Z,6.15
2023-03-18T01:02:20.651Z,6.14
2023-03-18T01:04:53.320Z,6.16
2023-03-18T01:07:24.250Z,6.20
2023-03-18T01:09:56.050Z,6.23
2023-03-18T01:12:29.271Z,6.18
2023-03-18T01:15:01.429Z,6.12
2023-03-18T01:17:33.403Z,6.15
2023-03-18T01:20:06.242Z,6.11
2023-03-18T01:22:39.228Z,6.12
2023-03-18T01:25:13.547Z,6.05
2023-03-18T01:27:45.951Z,6.02
2023-03-18T01:30:19.820Z,5.96
2023-03-18T01:32:51.924Z,5.92
2023-03-18T01:35:25.687Z,5.96
2023-03-18T01:37:58.043Z,5.91
2023-03-18T01:40:30.567Z,5.91
2023-03-18T01:43:21.887Z,5.90
2023-03-18T01:45:55.571Z,5.88
2023-03-18T01:48:29.876Z,5.85
2023-03-18T01:51:10.324Z,5.91
2023-03-18T01:53:45.890Z,5.88
2023-03-18T01:56:19.856Z,5.80
2023-03-18T01:58:54.969Z,5.76
2023-03-18T02:01:33.606Z,5.80
2023-03-18T02:04:10.355Z,5.77
2023-03-18T02:06:43.659Z,5.76
2023-03-18T02:09:16.175Z,5.63
2023-03-18T02:11:50.692Z,5.65
2023-03-18T02:14:26.726Z,5.70
2023-03-18T02:17:03.784Z,5.73
2023-03-18T02:19:51.701Z,5.74
2023-03-18T02:22:31.030Z,5.72
2023-03-18T02:25:14.235Z,5.71
2023-03-18T02:27:50.196Z,5.71
2023-03-18T02:30:27.278Z,5.68
2023-03-18T02:33:00.975Z,5.60
2023-03-18T02:35:34.934Z,5.63
2023-03-18T02:38:07.452Z,5.62
2023-03-18T02:40:41.720Z,5.63
2023-03-18T02:43:26.261Z,5.66
2023-03-18T02:46:30.782Z,5.57
2023-03-18T02:49:06.696Z,5.56
2023-03-18T02:51:39.582Z,5.51
2023-03-18T02:54:13.347Z,5.56
2023-03-18T02:56:45.988Z,5.53
2023-03-18T02:59:19.230Z,5.55
2023-03-18T03:01:54.246Z,5.58
2023-03-18T03:04:27.815Z,5.58
2023-03-18T03:07:01.459Z,5.55
2023-03-18T03:09:41.889Z,5.48
2023-03-18T03:12:14.561Z,5.50
2023-03-18T03:14:49.874Z,5.53
2023-03-18T03:17:22.709Z,5.53
2023-03-18T03:19:55.344Z,5.47
2023-03-18T03:22:27.358Z,5.42
2023-03-18T03:24:59.590Z,5.45
2023-03-18T03:27:31.963Z,5.43
2023-03-18T03:30:03.680Z,5.39
2023-03-18T03:32:35.412Z,5.41
2023-03-18T03:35:09.398Z,5.45
2023-03-18T03:37:42.177Z,5.43
2023-03-18T03:40:16.988Z,5.42
2023-03-18T03:42:50.161Z,5.33
2023-03-18T03:45:22.624Z,5.30
2023-03-18T03:47:53.782Z,5.31
2023-03-18T03:50:25.670Z,5.34
2023-03-18T03:52:58.263Z,5.29
2023-03-18T03:55:31.802Z,5.35
2023-03-18T03:58:03.761Z,5.29
2023-03-18T04:00:34.750Z,5.28
2023-03-18T04:03:06.758Z,5.31
2023-03-18T04:05:38.818Z,5.23
2023-03-18T04:08:11.035Z,5.21
2023-03-18T04:10:43.824Z,5.26
2023-03-18T04:13:15.705Z,5.28
2023-03-18T04:15:48.091Z,5.21
2023-03-18T04:18:22.817Z,5.16
2023-03-18T04:20:55.167Z,5.19
2023-03-18T04:23:40.937Z,5.17
2023-03-18T04:26:13.057Z,5.16
2023-03-18T04:28:45.265Z,5.23
2023-03-18T04:31:19.291Z,5.20
2023-03-18T04:33:50.964Z,5.20
2023-03-18T04:36:23.990Z,5.22
2023-03-18T04:38:56.869Z,5.21
2023-03-18T04:41:29.366Z,5.31
2023-03-18T04:44:02.532Z,5.31
2023-03-18T04:46:42.207Z,5.30
2023-03-18T04:49:14.094Z,5.33
2023-03-18T04:51:46.499Z,5.30
2023-03-18T04:54:27.293Z,5.29
2023-03-18T04:56:59.513Z,5.26
2023-03-18T04:59:31.692Z,5.21
2023-03-18T05:02:06.598Z,5.20
2023-03-18T05:04:38.980Z,5.23
2023-03-18T05:07:13.489Z,5.18
2023-03-18T05:09:45.314Z,5.19
2023-03-18T05:12:18.264Z,5.29
2023-03-18T05:14:50.187Z,5.32
2023-03-18T05:17:22.017Z,5.34
2023-03-18T05:20:00.245Z,5.32
2023-03-18T05:22:32.943Z,5.26
2023-03-18T05:25:12.708Z,5.31
2023-03-18T05:27:45.901Z,5.27
2023-03-18T05:30:23.882Z,5.25
2023-03-18T05:32:58.583Z,5.30
2023-03-18T05:35:47.224Z,5.32
2023-03-18T05:38:19.801Z,5.34
2023-03-18T05:40:51.719Z,5.36
2023-03-18T05:43:28.363Z,5.37
2023-03-18T05:46:01.945Z,5.42
2023-03-18T05:48:43.568Z,5.39
2023-03-18T05:51:16.208Z,5.37
2023-03-18T05:53:47.921Z,5.37
2023-03-18T05:56:25.967Z,5.42
2023-03-18T05:59:01.549Z,5.41
2023-03-18T06:01:41.211Z,5.41
2023-03-18T06:04:13.718Z,5.42
2023-03-18T06:06:44.610Z,5.47
2023-03-18T06:09:17.444Z,5.44
2023-03-18T06:11:50.644Z,5.51
2023-03-18T06:14:22.554Z,5.54
2023-03-18T06:16:55.631Z,5.60
2023-03-18T06:19:28.534Z,5.62
2023-03-18T06:21:58.998Z,5.68
2023-03-18T06:24:30.698Z,5.72
2023-03-18T06:27:04.799Z,5.67
2023-03-18T06:29:37.834Z,5.68
2023-03-18T06:32:14.272Z,5.71
2023-03-18T06:34:46.131Z,5.75
2023-03-18T06:37:17.931Z,5.73
2023-03-18T06:39:50.494Z,5.75
2023-03-18T06:42:22.907Z,5.82
2023-03-18T06:45:01.484Z,5.86
2023-03-18T06:47:46.473Z,5.89
2023-03-18T06:50:18.719Z,5.91
2023-03-18T06:52:50.553Z,5.93
2023-03-18T06:55:25.760Z,5.94
2023-03-18T06:57:58.010Z,5.99
2023-03-18T07:00:35.986Z,5.91
2023-03-18T07:03:09.043Z,5.94
2023-03-18T07:05:42.187Z,5.99
2023-03-18T07:08:15.634Z,6.01
2023-03-18T07:10:47.481Z,6.06
2023-03-18T07:13:19.095Z,6.13
2023-03-18T07:15:50.945Z,6.17
2023-03-18T07:18:23.879Z,6.26
2023-03-18T07:20:55.699Z,6.29
2023-03-18T07:23:27.932Z,6.30
2023-03-18T07:26:02.290Z,6.31
2023-03-18T07:28:34.213Z,6.37
2023-03-18T07:31:06.260Z,6.44
2023-03-18T07:33:38.613Z,6.46
2023-03-18T07:36:11.060Z,6.51
2023-03-18T07:38:43.058Z,6.56
2023-03-18T07:41:15.191Z,6.66
2023-03-18T07:43:48.613Z,6.69
2023-03-18T07:46:20.957Z,6.71
2023-03-18T07:48:52.942Z,6.73
2023-03-18T07:51:25.170Z,6.87
2023-03-18T07:53:57.401Z,6.98
2023-03-18T07:56:29.409Z,7.05
2023-03-18T07:59:01.534Z,7.13
2023-03-18T08:01:33.688Z,7.21
2023-03-18T08:04:06.010Z,7.32
2023-03-18T08:06:39.109Z,7.44
2023-03-18T08:09:11.008Z,7.53
2023-03-18T08:11:43.276Z,7.61
2023-03-18T08:14:15.248Z,7.70
2023-03-18T08:16:47.834Z,7.79
2023-03-18T08:19:19.835Z,7.91
2023-03-18T08:21:51.555Z,7.99
2023-03-18T08:24:24.494Z,8.07
2023-03-18T08:26:56.657Z,8.14
2023-03-18T08:29:28.457Z,8.19
2023-03-18T08:32:00.257Z,8.30
2023-03-18T08:34:32.438Z,8.40
2023-03-18T08:37:05.050Z,8.50
2023-03-18T08:39:36.896Z,8.58
2023-03-18T08:42:10.339Z,8.67
2023-03-18T08:44:43.437Z,8.70
2023-03-18T08:47:15.673Z,8.78
2023-03-18T08:49:49.214Z,8.84
2023-03-18T08:52:22.749Z,8.91
2023-03-18T08:54:54.500Z,8.95
2023-03-18T08:57:27.838Z,9.03
2023-03-18T08:59:59.944Z,9.12
2023-03-18T09:02:31.926Z,9.17
2023-03-18T09:05:03.858Z,9.24
2023-03-18T09:07:36.229Z,9.30
2023-03-18T09:10:10.217Z,9.39
2023-03-18T09:12:42.176Z,9.49
2023-03-18T09:15:15.991Z,9.57
2023-03-18T09:18:03.701Z,9.64
2023-03-18T09:20:40.465Z,9.75
2023-03-18T09:23:14.055Z,9.90
2023-03-18T09:25:46.975Z,9.99
2023-03-18T09:28:19.333Z,10.10
2023-03-18T09:30:51.293Z,10.19
2023-03-18T09:33:23.245Z,10.18
2023-03-18T09:35:55.422Z,10.27
2023-03-18T09:38:27.791Z,10.38
2023-03-18T09:41:08.009Z,10.44
2023-03-18T09:43:51.599Z,10.54
2023-03-18T09:46:32.942Z,10.59
2023-03-18T09:49:35.206Z,10.61
2023-03-18T09:52:19.410Z,10.68
2023-03-18T09:54:58.773Z,10.79
2023-03-18T09:57:34.595Z,10.88
2023-03-18T10:00:17.440Z,10.98
2023-03-18T10:02:54.190Z,11.09
2023-03-18T10:05:32.761Z,11.08
2023-03-18T10:08:09.085Z,11.13
2023-03-18T10:10:46.812Z,11.20
2023-03-18T10:13:23.582Z,11.20
2023-03-18T10:15:58.672Z,11.25
2023-03-18T10:18:34.800Z,11.23
2023-03-18T10:21:21.877Z,11.28
2023-03-18T10:24:03.643Z,11.33
2023-03-18T10:26:43.580Z,11.42
2023-03-18T10:29:33.366Z,11.48
2023-03-18T10:32:21.150Z,11.45
2023-03-18T10:35:03.958Z,11.49
2023-03-18T10:37:50.104Z,11.52
2023-03-18T10:40:25.595Z,11.54
2023-03-18T10:42:58.190Z,11.61
2023-03-18T10:45:33.077Z,11.71
2023-03-18T10:48:12.645Z,11.69
2023-03-18T10:50:50.163Z,11.74
2023-03-18T10:53:27.094Z,11.87
2023-03-18T10:56:06.943Z,11.92
2023-03-18T10:58:40.661Z,11.99
2023-03-18T11:01:19.092Z,12.05
2023-03-18T11:03:56.096Z,12.09
2023-03-18T11:06:36.815Z,12.09
2023-03-18T11:09:12.510Z,12.14
2023-03-18T11:11:45.976Z,12.23
2023-03-18T11:14:20.960Z,12.25
2023-03-18T11:17:00.335Z,12.34
2023-03-18T11:19:39.176Z,12.35
2023-03-18T11:22:22.511Z,12.40
2023-03-18T11:25:17.095Z,12.48
2023-03-18T11:27:51.288Z,12.64
2023-03-18T11:30:35.034Z,12.88
2023-03-18T11:33:15.407Z,13.05
2023-03-18T11:35:53.187Z,13.18
2023-03-18T11:38:29.305Z,13.25
2023-03-18T11:41:13.496Z,13.26
2023-03-18T11:43:59.264Z,13.32
2023-03-18T11:46:37.547Z,13.40
2023-03-18T11:49:14.112Z,13.53
2023-03-18T11:51:53.294Z,13.81
2023-03-18T11:54:45.226Z,13.92
2023-03-18T11:57:25.592Z,14.06
2023-03-18T12:00:07.440Z,14.15
2023-03-18T12:02:59.076Z,14.26
2023-03-18T12:05:51.976Z,14.38
2023-03-18T12:08:33.053Z,14.54
2023-03-18T12:11:12.897Z,14.55
2023-03-18T12:13:58.894Z,14.60
2023-03-18T12:16:50.593Z,14.69
2023-03-18T12:19:40.861Z,14.81
2023-03-18T12:22:40.941Z,14.84
2023-03-18T12:25:32.829Z,14.90
2023-03-18T12:28:17.030Z,15.02
2023-03-18T12:31:07.929Z,15.08
2023-03-18T12:33:53.355Z,15.05
2023-03-18T12:36:45.055Z,15.02
2023-03-18T12:39:53.762Z,14.90
2023-03-18T12:42:38.988Z,14.80
2023-03-18T12:45:17.015Z,14.86
2023-03-18T12:47:54.224Z,14.98
2023-03-18T12:50:33.707Z,15.06
2023-03-18T12:53:14.837Z,15.21
2023-03-18T12:55:54.025Z,15.36
2023-03-18T12:58:30.004Z,15.47
2023-03-18T13:01:07.285Z,15.44
2023-03-18T13:03:41.062Z,15.49
2023-03-18T13:06:18.740Z,15.42
2023-03-18T13:09:02.369Z,15.37
2023-03-18T13:11:46.640Z,15.23
2023-03-18T13:14:26.280Z,15.07
2023-03-18T13:16:59.746Z,15.01
2023-03-18T13:19:32.385Z,15.08
2023-03-18T13:22:18.417Z,15.16
2023-03-18T13:25:02.839Z,15.26
2023-03-18T13:27:46.290Z,15.20
2023-03-18T13:30:28.323Z,15.32
2023-03-18T13:33:17.656Z,15.80
2023-03-18T13:36:10.388Z,16.10
2023-03-18T13:38:55.595Z,16.43
2023-03-18T13:42:04.542Z,16.59
2023-03-18T13:44:43.348Z,16.66
2023-03-18T13:47:19.665Z,16.78
2023-03-18T13:50:01.557Z,16.78
2023-03-18T13:52:42.002Z,16.84
2023-03-18T13:55:27.582Z,16.93
2023-03-18T13:58:10.507Z,16.67
2023-03-18T14:00:41.946Z,16.31
2023-03-18T14:03:23.223Z,16.14
2023-03-18T14:06:22.892Z,15.96
2023-03-18T14:08:55.507Z,15.91
2023-03-18T14:11:52.979Z,16.04
2023-03-18T14:15:09.395Z,15.98
2023-03-18T14:17:55.738Z,15.91
2023-03-18T14:20:40.636Z,15.85
2023-03-18T14:23:39.295Z,15.64
2023-03-18T14:26:21.890Z,15.58
2023-03-18T14:29:03.554Z,15.55
2023-03-18T14:32:01.026Z,15.46
2023-03-18T14:34:35.872Z,15.34
2023-03-18T14:37:30.361Z,15.22
2023-03-18T14:40:15.805Z,15.20
2023-03-18T14:42:56.794Z,15.22
2023-03-18T14:45:33.438Z,15.23
2023-03-18T14:48:13.540Z,15.22
2023-03-18T14:50:50.549Z,15.19
2023-03-18T14:53:30.056Z,15.17
2023-03-18T14:56:04.319Z,15.17
2023-03-18T14:58:50.549Z,15.14
2023-03-18T15:01:30.242Z,15.10
2023-03-18T15:04:03.810Z,15.06
2023-03-18T15:06:36.640Z,15.03
2023-03-18T15:09:15.520Z,14.99
2023-03-18T15:11:49.046Z,14.94
2023-03-18T15:14:26.958Z,14.92
2023-03-18T15:17:00.943Z,14.89
2023-03-18T15:19:33.648Z,14.87
2023-03-18T15:22:08.633Z,14.83
2023-03-18T15:24:40.770Z,14.87
2023-03-18T15:27:19.512Z,14.83
2023-03-18T15:29:54.622Z,14.80
2023-03-18T15:32:29.533Z,14.76
2023-03-18T15:35:16.623Z,14.75
2023-03-18T15:38:03.220Z,14.71
2023-03-18T15:40:36.668Z,14.66
2023-03-18T15:43:29.830Z,14.66
2023-03-18T15:46:01.057Z,14.61
2023-03-18T15:48:37.879Z,14.58
2023-03-18T15:51:28.177Z,14.56
2023-03-18T15:54:04.985Z,14.52
2023-03-18T15:56:44.084Z,14.46
2023-03-18T15:59:19.929Z,14.43
2023-03-18T16:01:52.643Z,14.38
2023-03-18T16:04:26.005Z,14.33
2023-03-18T16:06:59.449Z,14.31
2023-03-18T16:09:34.690Z,14.27
2023-03-18T16:12:14.402Z,14.26
2023-03-18T16:14:47.627Z,14.20
2023-03-18T16:17:22.207Z,14.18
2023-03-18T16:19:56.970Z,14.16
2023-03-18T16:22:30.835Z,14.14
2023-03-18T16:25:04.601Z,14.11
2023-03-18T16:27:40.172Z,14.03
2023-03-18T16:30:22.722Z,14.04
2023-03-18T16:32:56.625Z,14.02
2023-03-18T16:35:33.787Z,14.01
2023-03-18T16:38:06.414Z,13.97
2023-03-18T16:40:38.415Z,13.92
2023-03-18T16:43:16.209Z,13.86
2023-03-18T16:45:49.380Z,13.80
2023-03-18T16:48:23.780Z,13.79
2023-03-18T16:50:57.442Z,13.77
2023-03-18T16:53:31.901Z,13.74
2023-03-18T16:56:16.076Z,13.70
2023-03-18T16:58:48.216Z,13.67
2023-03-18T17:01:21.506Z,13.63
2023-03-18T17:03:54.009Z,13.59
2023-03-18T17:06:24.803Z,13.51
2023-03-18T17:08:57.041Z,13.46
2023-03-18T17:11:29.185Z,13.41
2023-03-18T17:14:00.805Z,13.34
2023-03-18T17:16:32.860Z,13.29
2023-03-18T17:19:05.372Z,13.24
2023-03-18T17:21:38.031Z,13.20
2023-03-18T17:24:10.746Z,13.12
2023-03-18T17:26:43.334Z,13.09
2023-03-18T17:29:24.443Z,13.07
2023-03-18T17:31:56.970Z,12.99
2023-03-18T17:34:29.244Z,12.95
2023-03-18T17:37:01.083Z,12.93
2023-03-18T17:39:32.951Z,12.86
2023-03-18T17:42:05.992Z,12.79
2023-03-18T17:44:38.462Z,12.75
2023-03-18T17:47:11.395Z,12.73
2023-03-18T17:49:43.672Z,12.72
2023-03-18T17:52:20.786Z,12.71
2023-03-18T17:54:52.607Z,12.70
2023-03-18T17:57:24.386Z,12.66
2023-03-18T17:59:57.722Z,12.64
2023-03-18T18:02:29.907Z,12.64
2023-03-18T18:05:01.768Z,12.64
2023-03-18T18:07:33.915Z,12.65
2023-03-18T18:10:06.915Z,12.63
2023-03-18T18:12:47.226Z,12.60
2023-03-18T18:15:27.796Z,12.60
2023-03-18T18:18:01.300Z,12.59
2023-03-18T18:20:34.156Z,12.58
2023-03-18T18:23:07.382Z,12.58
2023-03-18T18:25:39.389Z,12.55
2023-03-18T18:28:21.132Z,12.52
2023-03-18T18:30:52.990Z,12.44
2023-03-18T18:33:25.193Z,12.43
2023-03-18T18:35:57.749Z,12.37
2023-03-18T18:38:30.785Z,12.30
2023-03-18T18:41:03.511Z,12.28
2023-03-18T18:43:36.484Z,12.19
2023-03-18T18:46:14.665Z,12.16
2023-03-18T18:48:50.488Z,12.10
2023-03-18T18:51:25.316Z,12.03
2023-03-18T18:53:57.426Z,11.91
2023-03-18T18:56:34.083Z,11.89
2023-03-18T18:59:18.628Z,11.87
2023-03-18T19:01:50.649Z,11.85
2023-03-18T19:04:23.602Z,11.81
2023-03-18T19:06:56.176Z,11.77
2023-03-18T19:09:28.733Z,11.75
2023-03-18T19:12:00.553Z,11.72
2023-03-18T19:14:32.811Z,11.65
2023-03-18T19:17:05.328Z,11.62
2023-03-18T19:19:35.828Z,11.69
2023-03-18T19:22:07.963Z,11.57
2023-03-18T19:24:40.934Z,11.50
2023-03-18T19:27:21.768Z,11.44
2023-03-18T19:29:55.602Z,11.41
2023-03-18T19:32:28.512Z,11.42
2023-03-18T19:35:00.562Z,11.35
2023-03-18T19:37:33.420Z,11.30
2023-03-18T19:40:24.296Z,11.28
2023-03-18T19:42:56.451Z,11.27
2023-03-18T19:45:28.595Z,11.25
2023-03-18T19:48:01.118Z,11.18
2023-03-18T19:50:33.112Z,11.04
2023-03-18T19:53:13.052Z,10.96
2023-03-18T19:55:46.087Z,10.99
2023-03-18T19:58:24.488Z,11.02
2023-03-18T20:00:56.465Z,10.99
2023-03-18T20:03:28.834Z,11.04
2023-03-18T20:06:01.665Z,11.07
2023-03-18T20:08:31.996Z,11.02
2023-03-18T20:11:04.121Z,10.94
2023-03-18T20:13:35.962Z,10.90
2023-03-18T20:16:12.234Z,10.84
2023-03-18T20:18:44.865Z,10.85
2023-03-18T20:21:20.378Z,10.84
2023-03-18T20:23:53.972Z,10.84
2023-03-18T20:26:25.858Z,10.86
2023-03-18T20:28:58.649Z,10.83
2023-03-18T20:31:30.829Z,10.78
2023-03-18T20:34:02.849Z,10.76
2023-03-18T20:36:35.152Z,10.76
2023-03-18T20:39:07.288Z,10.70
2023-03-18T20:41:39.815Z,10.63
2023-03-18T20:44:14.791Z,10.63
2023-03-18T20:46:46.698Z,10.57
2023-03-18T20:49:19.700Z,10.49
2023-03-18T20:51:51.638Z,10.42
2023-03-18T20:54:28.951Z,10.40
2023-03-18T20:57:01.027Z,10.38
2023-03-18T20:59:32.891Z,10.39
2023-03-18T21:02:04.752Z,10.34
2023-03-18T21:04:37.162Z,10.31
2023-03-18T21:07:14.150Z,10.25
2023-03-18T21:09:46.405Z,10.19
2023-03-18T21:12:20.970Z,10.18
2023-03-18T21:14:52.974Z,10.18
2023-03-18T21:17:27.345Z,10.14
2023-03-18T21:20:15.340Z,10.18
2023-03-18T21:22:52.735Z,10.11
2023-03-18T21:25:26.890Z,10.09
2023-03-18T21:27:58.916Z,10.07
2023-03-18T21:30:31.474Z,10.09
2023-03-18T21:33:04.159Z,10.02
2023-03-18T21:35:35.181Z,10.00
2023-03-18T21:38:08.495Z,10.02
2023-03-18T21:40:40.814Z,10.02
2023-03-18T21:43:30.232Z,9.96
2023-03-18T21:46:03.441Z,9.86
2023-03-18T21:48:35.361Z,9.87
2023-03-18T21:51:08.630Z,9.91
2023-03-18T21:53:40.746Z,9.94
2023-03-18T21:56:13.413Z,9.93
2023-03-18T21:58:45.277Z,9.85
2023-03-18T22:01:20.906Z,9.80
2023-03-18T22:03:53.921Z,9.78
2023-03-18T22:06:25.841Z,9.81
2023-03-18T22:08:57.921Z,9.81
2023-03-18T22:11:30.036Z,9.79
2023-03-18T22:14:01.911Z,9.75
2023-03-18T22:16:33.855Z,9.65
2023-03-18T22:19:05.691Z,9.56
2023-03-18T22:21:37.722Z,9.55
2023-03-18T22:24:14.725Z,9.53
2023-03-18T22:26:46.586Z,9.53
2023-03-18T22:29:18.853Z,9.47
2023-03-18T22:31:50.702Z,9.39
2023-03-18T22:34:25.479Z,9.28
2023-03-18T22:36:57.355Z,9.28
2023-03-18T22:39:29.241Z,9.26
2023-03-18T22:42:01.142Z,9.24
2023-03-18T22:44:33.016Z,9.20
2023-03-18T22:47:05.626Z,9.16
2023-03-18T22:49:37.415Z,9.16
2023-03-18T22:52:14.642Z,9.10
2023-03-18T22:54:47.023Z,9.06
2023-03-18T22:57:22.197Z,9.05
2023-03-18T22:59:54.606Z,9.04
2023-03-18T23:02:28.545Z,8.98
2023-03-18T23:05:00.502Z,8.89
2023-03-18T23:07:34.374Z,8.88
2023-03-18T23:10:07.330Z,8.87
2023-03-18T23:12:37.720Z,8.78
2023-03-18T23:15:14.624Z,8.65
2023-03-18T23:17:47.575Z,8.63
2023-03-18T23:20:20.587Z,8.66
2023-03-18T23:22:52.358Z,8.68
2023-03-18T23:25:24.603Z,8.68
2023-03-18T23:27:56.572Z,8.76
2023-03-18T23:30:28.659Z,8.78
2023-03-18T23:33:00.871Z,8.68
2023-03-18T23:35:33.304Z,8.59
2023-03-18T23:38:05.812Z,8.60
2023-03-18T23:40:38.025Z,8.67
2023-03-18T23:43:09.913Z,8.69
2023-03-18T23:45:42.010Z,8.68
2023-03-18T23:48:14.150Z,8.67
2023-03-18T23:50:46.543Z,8.72
2023-03-18T23:53:18.374Z,8.74
2023-03-18T23:55:52.283Z,8.75
2023-03-18T23:58:24.173Z,8.78
